.
WxDataArchive / Data Records for 2009-07-19
2009-07-18 July 2009 2009-07-20

Data Records for Sunday, 19 July 2009

Time	Temp	Chill	HIndex	Humid	Dewpt	 Wind 	HiWind	WindDir	Rain 	Barom 
-----	----	-----	------	-----	-----	------	------	-------	-----	----- 
00:00	58.9	58.9	58.9	77	51.7	0	0	---	0.00	30.082 
00:05	58.6	58.6	58.6	77	51.4	0	0	---	0.00	30.082 
00:10	58.4	58.4	58.4	78	51.6	0	0	---	0.00	30.082 
00:15	58.3	58.3	58.3	79	51.8	0	0	---	0.00	30.083 
00:20	58.0	58.0	58.0	80	51.9	0	0	---	0.00	30.083 
00:25	57.8	57.8	57.8	81	52.0	0	0	---	0.00	30.083 
00:30	57.5	57.5	57.5	81	51.7	0	0	---	0.00	30.086 
00:35	57.3	57.3	57.3	82	51.9	0	0	---	0.00	30.086 
00:40	57.2	57.2	57.2	83	52.1	0	0	---	0.00	30.086 
00:45	56.9	56.9	56.9	84	52.1	0	0	---	0.00	30.090 
00:50	56.7	56.7	56.7	84	51.9	0	0	---	0.00	30.090 
00:55	56.6	56.6	56.6	84	51.8	0	0	---	0.00	30.090 
01:00	56.5	56.5	56.5	85	52.0	0	0	---	0.00	30.090 
01:05	56.3	56.3	56.3	85	51.8	0	0	---	0.00	30.090 
01:10	56.2	56.2	56.2	85	51.7	0	0	---	0.00	30.090 
01:15	56.0	56.0	56.0	86	51.9	0	0	---	0.00	30.085 
01:20	55.9	55.9	55.9	86	51.8	0	0	---	0.00	30.085 
01:25	55.9	55.9	55.9	87	52.1	0	0	---	0.00	30.085 
01:30	55.7	55.7	55.7	87	51.9	0	0	---	0.00	30.085 
01:35	55.6	55.6	55.6	88	52.1	0	0	---	0.00	30.085 
01:40	55.6	55.6	55.6	88	52.1	0	0	---	0.00	30.085 
01:45	55.4	55.4	55.4	88	51.9	0	0	---	0.00	30.085 
01:50	55.3	55.3	55.3	88	51.8	0	0	---	0.00	30.085 
01:55	55.3	55.3	55.3	89	52.1	0	0	---	0.00	30.085 
02:00	55.1	55.1	55.1	89	51.9	0	0	---	0.00	30.082 
02:05	55.0	55.0	55.0	89	51.8	0	0	---	0.00	30.082 
02:10	54.8	54.8	54.8	89	51.6	0	0	---	0.00	30.082 
02:15	54.8	54.8	54.8	90	51.9	0	0	---	0.00	30.081 
02:20	54.7	54.7	54.7	90	51.8	0	0	---	0.00	30.081 
02:25	54.5	54.5	54.5	90	51.6	0	0	---	0.00	30.081 
02:30	54.5	54.5	54.5	90	51.6	0	0	---	0.00	30.076 
02:35	54.4	54.4	54.4	90	51.5	0	0	---	0.00	30.076 
02:40	54.2	54.2	54.2	90	51.3	0	0	---	0.00	30.076 
02:45	54.1	54.1	54.1	90	51.2	0	0	---	0.00	30.079 
02:50	53.9	53.9	53.9	91	51.3	0	0	---	0.00	30.079 
02:55	53.9	53.9	53.9	91	51.3	0	0	---	0.00	30.079 
03:00	53.9	53.9	53.9	91	51.3	0	0	---	0.00	30.078 
03:05	53.8	53.8	53.8	91	51.2	0	0	---	0.00	30.078 
03:10	53.6	53.6	53.6	91	51.0	0	0	---	0.00	30.078 
03:15	53.5	53.5	53.5	92	51.2	0	0	---	0.00	30.084 
03:20	53.3	53.3	53.3	92	51.0	0	0	---	0.00	30.084 
03:25	53.3	53.3	53.3	92	51.0	0	0	---	0.00	30.084 
03:30	53.2	53.2	53.2	92	50.9	0	0	---	0.00	30.087 
03:35	53.2	53.2	53.2	92	50.9	0	0	---	0.00	30.087 
03:40	53.2	53.2	53.2	92	50.9	0	0	---	0.00	30.087 
03:45	53.1	53.1	53.1	92	50.8	0	0	---	0.00	30.088 
03:50	53.1	53.1	53.1	92	50.8	0	0	---	0.00	30.088 
03:55	53.1	53.1	53.1	93	51.1	0	0	---	0.00	30.088 
04:00	53.1	53.1	53.1	93	51.1	0	0	---	0.00	30.090 
04:05	53.1	53.1	53.1	93	51.1	0	0	---	0.00	30.090 
04:10	53.1	53.1	53.1	93	51.1	0	0	---	0.00	30.090 
04:15	53.1	53.1	53.1	93	51.1	0	0	---	0.00	30.095 
04:20	53.1	53.1	53.1	93	51.1	0	0	---	0.00	30.095 
04:25	53.1	53.1	53.1	93	51.1	0	0	---	0.00	30.095 
04:30	53.1	53.1	53.1	94	51.4	0	0	---	0.00	30.098 
04:35	53.1	53.1	53.1	94	51.4	0	0	---	0.00	30.098 
04:40	52.9	52.9	52.9	94	51.2	0	0	---	0.00	30.098 
04:45	52.9	52.9	52.9	94	51.2	0	0	---	0.00	30.102 
04:50	52.8	52.8	52.8	94	51.1	0	0	---	0.00	30.102 
04:55	52.8	52.8	52.8	94	51.1	0	0	---	0.00	30.102 
05:00	52.6	52.6	52.6	94	50.9	0	0	---	0.00	30.103 
05:05	52.6	52.6	52.6	94	50.9	0	0	---	0.00	30.103 
05:10	52.6	52.6	52.6	94	50.9	0	0	---	0.00	30.103 
05:15	52.6	52.6	52.6	94	50.9	0	0	---	0.00	30.099 
05:20	52.5	52.5	52.5	94	50.8	0	0	---	0.00	30.099 
05:25	52.5	52.5	52.5	94	50.8	0	0	---	0.00	30.099 
05:30	52.5	52.5	52.5	94	50.8	0	0	---	0.00	30.097 
05:35	52.5	52.5	52.5	94	50.8	0	0	---	0.00	30.097 
05:40	52.5	52.5	52.5	95	51.1	0	0	---	0.00	30.097 
05:45	52.6	52.6	52.6	95	51.2	0	0	---	0.00	30.096 
05:50	52.8	52.8	52.8	95	51.4	0	0	---	0.00	30.096 
05:55	52.8	52.8	52.8	95	51.4	0	0	---	0.00	30.096 
06:00	52.8	52.8	52.8	95	51.4	0	0	---	0.00	30.097 
06:05	52.8	52.8	52.8	95	51.4	0	0	---	0.00	30.097 
06:10	52.9	52.9	52.9	95	51.5	0	0	---	0.00	30.097 
06:15	53.1	53.1	53.1	95	51.7	0	0	---	0.00	30.108 
06:20	53.3	53.3	53.3	95	51.9	0	0	---	0.00	30.108 
06:25	53.5	53.5	53.5	95	52.1	0	0	---	0.00	30.108 
06:30	53.5	53.5	53.5	95	52.1	0	0	---	0.00	30.106 
06:35	53.5	53.5	53.5	95	52.1	0	0	---	0.00	30.106 
06:40	53.6	53.6	53.6	95	52.2	0	0	---	0.00	30.106 
06:45	53.6	53.6	53.6	95	52.2	0	0	---	0.00	30.109 
06:50	53.9	53.9	53.9	95	52.5	0	0	---	0.00	30.109 
06:55	54.1	54.1	54.1	95	52.7	0	0	---	0.00	30.109 
07:00	54.4	54.4	54.4	95	53.0	0	0	---	0.00	30.112 
07:05	54.5	54.5	54.5	95	53.1	0	0	---	0.00	30.112 
07:10	54.7	54.7	54.7	96	53.6	0	0	---	0.00	30.112 
07:15	54.8	54.8	54.8	96	53.7	0	0	---	0.00	30.117 
07:20	55.1	55.1	55.1	96	54.0	0	0	---	0.00	30.117 
07:25	55.3	55.3	55.3	96	54.2	0	0	---	0.00	30.117 
07:30	55.6	55.6	55.6	96	54.5	0	0	---	0.00	30.121 
07:35	55.7	55.7	55.7	96	54.6	0	1	292	0.00	30.121 
07:40	55.9	55.9	55.9	96	54.8	0	0	---	0.00	30.121 
07:45	56.0	56.0	56.0	96	54.9	0	0	---	0.00	30.123 
07:50	56.3	56.3	56.3	95	54.9	0	0	---	0.00	30.123 
07:55	56.5	56.5	56.5	95	55.1	0	0	---	0.00	30.123 
08:00	56.7	56.7	56.7	95	55.3	0	0	---	0.00	30.127 
08:05	57.0	57.0	57.0	95	55.6	0	0	---	0.00	30.127 
08:10	57.3	57.3	57.3	95	55.9	0	0	---	0.00	30.127 
08:15	57.5	57.5	57.5	94	55.8	0	0	---	0.00	30.135 
08:20	58.0	58.0	58.0	94	56.3	0	1	292	0.00	30.135 
08:25	58.3	58.3	58.3	94	56.6	0	1	292	0.00	30.135 
08:30	58.4	58.4	58.4	92	56.1	0	1	292	0.00	30.137 
08:35	58.7	58.7	58.7	92	56.4	0	1	292	0.00	30.137 
08:40	59.0	59.0	59.0	90	56.1	0	1	292	0.00	30.137 
08:45	59.2	59.2	59.2	89	56.0	0	2	292	0.00	30.140 
08:50	59.5	59.5	59.5	88	55.9	0	1	292	0.00	30.140 
08:55	59.8	59.8	59.8	87	55.9	0	1	292	0.00	30.140 
09:00	60.2	60.2	60.2	87	56.3	0	0	---	0.00	30.144 
09:05	60.9	60.9	60.9	86	56.7	0	1	292	0.00	30.144 
09:10	61.3	61.3	61.3	84	56.4	0	0	---	0.00	30.144 
09:15	61.8	61.8	61.8	84	56.9	0	0	---	0.00	30.154 
09:20	62.3	62.3	62.3	82	56.7	0	0	---	0.00	30.154 
09:25	63.1	63.1	63.1	80	56.8	0	2	338	0.00	30.154 
09:30	63.5	63.5	63.5	76	55.8	0	2	338	0.00	30.157 
09:35	63.9	63.9	63.9	75	55.8	0	1	338	0.00	30.157 
09:40	64.2	64.2	64.2	75	56.1	0	1	338	0.00	30.157 
09:45	64.7	64.7	64.7	74	56.2	0	2	338	0.00	30.157 
09:50	65.2	65.2	65.2	72	55.9	1	4	338	0.00	30.157 
09:55	65.5	65.5	65.5	72	56.2	1	3	90	0.00	30.157 
10:00	65.3	65.3	65.3	71	55.6	0	1	90	0.00	30.159 
10:05	65.3	65.3	65.3	72	56.0	1	3	90	0.00	30.159 
10:10	65.6	65.6	65.6	72	56.3	1	3	90	0.00	30.159 
10:15	65.8	65.8	65.8	70	55.7	2	3	90	0.00	30.159 
10:20	66.0	66.0	66.0	71	56.3	1	3	90	0.00	30.159 
10:25	66.1	66.1	66.1	70	56.0	1	2	90	0.00	30.159 
10:30	66.1	66.1	66.1	68	55.2	1	3	90	0.00	30.160 
10:35	66.1	66.1	66.1	68	55.2	1	3	90	0.00	30.160 
10:40	66.3	66.3	66.3	66	54.6	1	3	90	0.00	30.160 
10:45	66.8	66.8	66.8	67	55.5	0	1	90	0.00	30.164 
10:50	66.9	66.9	66.9	67	55.6	0	2	90	0.00	30.164 
10:55	67.1	67.1	67.1	68	56.2	0	2	90	0.00	30.164 
11:00	67.3	67.3	67.3	66	55.5	1	4	90	0.00	30.168 
11:05	67.8	67.8	67.8	65	55.6	0	2	90	0.00	30.168 
11:10	68.3	68.3	68.3	68	57.3	0	2	90	0.00	30.168 
11:15	68.8	68.8	68.8	65	56.5	0	3	90	0.00	30.168 
11:20	69.4	69.4	69.4	63	56.2	1	3	90	0.00	30.168 
11:25	69.9	69.9	69.9	61	55.8	2	4	90	0.00	30.168 
11:30	69.8	69.8	69.8	61	55.7	1	4	90	0.00	30.165 
11:35	69.4	69.4	69.4	65	57.1	1	4	90	0.00	30.165 
11:40	70.1	70.1	70.1	61	56.0	1	2	90	0.00	30.165 
11:45	71.1	71.1	71.1	58	55.6	1	5	90	0.00	30.161 
11:50	71.3	71.3	71.3	56	54.8	0	2	90	0.00	30.161 
11:55	70.8	70.8	70.8	61	56.7	0	4	90	0.00	30.161 
12:00	70.6	70.6	70.6	59	55.6	1	5	90	0.00	30.161 
12:05	70.4	70.4	70.4	60	55.8	1	4	45	0.00	30.161 
12:10	71.1	71.1	71.1	60	56.5	1	4	68	0.00	30.161 
12:15	71.3	71.3	71.3	58	55.7	1	4	90	0.00	30.159 
12:20	70.8	70.8	70.8	58	55.3	0	3	90	0.00	30.159 
12:25	70.9	70.9	70.9	62	57.2	1	3	90	0.00	30.159 
12:30	71.8	71.8	71.8	58	56.2	1	4	90	0.00	30.155 
12:35	72.3	72.3	72.3	56	55.7	1	3	112	0.00	30.155 
12:40	72.7	72.7	72.7	55	55.6	2	6	90	0.00	30.155 
12:45	72.3	72.3	72.3	56	55.7	2	4	90	0.00	30.154 
12:50	71.8	71.8	71.8	55	54.7	0	2	90	0.00	30.154 
12:55	70.9	70.9	70.9	58	55.4	0	1	90	0.00	30.154 
13:00	70.6	70.6	70.6	59	55.6	0	1	90	0.00	30.153 
13:05	70.6	70.6	70.6	60	56.0	0	3	90	0.00	30.153 
13:10	70.4	70.4	70.4	59	55.4	0	1	90	0.00	30.153 
13:15	70.4	70.4	70.4	58	54.9	0	1	90	0.00	30.151 
13:20	70.3	70.3	70.3	58	54.8	0	1	90	0.00	30.151 
13:25	70.1	70.1	70.1	58	54.6	0	1	90	0.00	30.151 
13:30	69.9	69.9	69.9	58	54.4	0	1	90	0.00	30.147 
13:35	70.3	70.3	70.3	60	55.7	0	1	90	0.00	30.147 
13:40	70.4	70.4	70.4	58	54.9	0	1	90	0.00	30.147 
13:45	70.9	70.9	70.9	56	54.4	1	2	90	0.00	30.142 
13:50	71.1	71.1	71.1	57	55.1	0	1	90	0.00	30.142 
13:55	71.5	71.5	71.5	58	55.9	0	1	90	0.00	30.142 
14:00	72.0	72.0	72.0	58	56.4	0	1	90	0.00	30.138 
14:05	72.3	72.3	72.3	56	55.7	0	2	90	0.00	30.138 
14:10	72.7	72.7	72.7	56	56.1	1	5	90	0.00	30.138 
14:15	72.8	72.8	72.8	53	54.7	2	4	90	0.00	30.136 
14:20	73.2	73.2	73.2	53	55.0	1	4	90	0.00	30.136 
14:25	74.0	74.0	74.0	58	58.3	0	2	90	0.00	30.136 
14:30	74.7	74.7	74.7	53	56.4	0	3	248	0.00	30.131 
14:35	74.9	74.9	74.9	53	56.6	1	4	248	0.00	30.131 
14:40	74.9	74.9	74.9	50	55.0	1	6	68	0.00	30.131 
14:45	74.6	74.6	74.6	52	55.8	1	3	90	0.00	30.129 
14:50	73.7	73.7	73.7	51	54.4	1	4	112	0.00	30.129 
14:55	73.5	73.5	73.5	54	55.8	1	4	112	0.00	30.129 
15:00	74.0	74.0	74.0	53	55.8	1	3	112	0.00	30.123 
15:05	74.4	74.4	74.4	50	54.5	1	4	112	0.00	30.123 
15:10	74.4	74.4	74.4	47	52.8	0	2	112	0.00	30.123 
15:15	74.4	74.4	74.4	50	54.5	0	1	112	0.00	30.124 
15:20	74.9	74.9	74.9	49	54.4	1	4	112	0.00	30.124 
15:25	75.3	75.3	77.7	52	56.4	1	3	90	0.00	30.124 
15:30	76.0	76.0	78.0	48	54.9	1	3	112	0.00	30.121 
15:35	76.5	76.5	78.3	47	54.7	1	4	112	0.00	30.121 
15:40	77.2	77.2	78.7	48	56.0	1	2	112	0.00	30.121 
15:45	77.6	77.6	78.8	46	55.2	0	1	112	0.00	30.116 
15:50	77.0	77.0	78.4	44	53.4	0	2	112	0.00	30.116 
15:55	76.5	76.5	78.2	46	54.2	0	2	112	0.00	30.116 
16:00	75.8	75.8	77.9	46	53.5	1	3	112	0.00	30.112 
16:05	74.9	74.9	74.9	47	53.3	1	3	112	0.00	30.112 
16:10	74.9	74.9	74.9	51	55.5	0	3	112	0.00	30.112 
16:15	75.1	75.1	77.7	50	55.2	0	2	112	0.00	30.110 
16:20	75.3	75.3	77.7	47	53.7	1	3	112	0.00	30.110 
16:25	75.4	75.4	77.8	46	53.2	0	2	112	0.00	30.110 
16:30	75.8	75.8	77.9	46	53.5	0	2	112	0.00	30.107 
16:35	75.6	75.6	77.8	44	52.1	1	3	112	0.00	30.107 
16:40	75.1	75.1	77.6	45	52.3	0	2	112	0.00	30.107 
16:45	74.6	74.6	74.6	46	52.4	0	1	112	0.00	30.106 
16:50	74.4	74.4	74.4	47	52.8	0	2	112	0.00	30.106 
16:55	74.2	74.2	74.2	48	53.2	0	0	---	0.00	30.106 
17:00	74.0	74.0	74.0	50	54.2	0	2	112	0.00	30.107 
17:05	73.9	73.9	73.9	51	54.6	0	2	112	0.00	30.107 
17:10	73.7	73.7	73.7	46	51.6	0	3	112	0.00	30.107 
17:15	73.9	73.9	73.9	47	52.4	0	1	112	0.00	30.103 
17:20	73.9	73.9	73.9	49	53.5	1	2	112	0.00	30.103 
17:25	73.7	73.7	73.7	47	52.2	1	2	112	0.00	30.103 
17:30	73.9	73.9	73.9	48	53.0	0	2	112	0.00	30.102 
17:35	73.9	73.9	73.9	47	52.4	0	1	112	0.00	30.102 
17:40	73.9	73.9	73.9	49	53.5	0	1	112	0.00	30.102 
17:45	73.7	73.7	73.7	49	53.3	0	2	112	0.00	30.103 
17:50	73.5	73.5	73.5	49	53.2	1	2	112	0.00	30.103 
17:55	73.5	73.5	73.5	50	53.7	0	1	112	0.00	30.103 
18:00	73.5	73.5	73.5	50	53.7	0	2	112	0.00	30.099 
18:05	73.7	73.7	73.7	50	53.9	0	1	112	0.00	30.099 
18:10	73.9	73.9	73.9	51	54.6	0	1	112	0.00	30.099 
18:15	73.9	73.9	73.9	49	53.5	0	1	112	0.00	30.094 
18:20	73.9	73.9	73.9	50	54.1	0	1	112	0.00	30.094 
18:25	73.7	73.7	73.7	53	55.5	1	5	112	0.00	30.094 
18:30	73.2	73.2	73.2	55	56.0	0	1	90	0.00	30.097 
18:35	72.5	72.5	72.5	57	56.4	0	1	90	0.00	30.097 
18:40	72.1	72.1	72.1	60	57.4	0	1	90	0.00	30.097 
18:45	72.1	72.1	72.1	61	57.9	0	1	90	0.00	30.103 
18:50	72.3	72.3	72.3	64	59.4	0	2	90	0.00	30.103 
18:55	71.5	71.5	71.5	66	59.5	0	4	248	0.02	30.103 
19:00	69.9	69.9	69.9	70	59.7	0	1	248	0.02	30.111 
19:05	68.6	68.6	68.6	75	60.3	0	0	---	0.01	30.111 
19:10	67.1	67.1	67.1	75	58.9	0	0	---	0.01	30.111 
19:15	66.3	66.3	66.3	80	59.9	0	3	135	0.00	30.096 
19:20	66.3	66.3	66.3	81	60.3	0	5	112	0.00	30.096 
19:25	66.4	66.4	66.4	83	61.1	0	1	112	0.00	30.096 
19:30	66.4	66.4	66.4	84	61.4	0	0	---	0.00	30.103 
19:35	66.3	66.3	66.3	84	61.3	0	3	112	0.00	30.103 
19:40	65.6	65.6	65.6	83	60.3	1	4	270	0.00	30.103 
19:45	64.8	64.8	64.8	82	59.2	3	6	270	0.00	30.127 
19:50	64.3	64.3	64.3	81	58.3	3	5	270	0.00	30.127 
19:55	63.9	63.9	63.9	80	57.6	3	6	270	0.01	30.127 
20:00	62.6	62.6	62.6	80	56.3	3	5	270	0.00	30.133 
20:05	62.3	62.3	62.3	83	57.1	2	5	270	0.01	30.133 
20:10	61.8	61.8	61.8	85	57.2	3	6	270	0.01	30.133 
20:15	61.6	61.6	61.6	87	57.7	1	7	292	0.00	30.129 
20:20	61.5	61.5	61.5	87	57.6	2	5	270	0.00	30.129 
20:25	61.3	61.3	61.3	87	57.4	1	4	270	0.00	30.129 
20:30	61.3	61.3	61.3	88	57.7	0	2	292	0.01	30.149 
20:35	61.0	61.0	61.0	89	57.7	1	2	292	0.08	30.149 
20:40	60.5	60.5	60.5	90	57.5	1	3	292	0.06	30.149 
20:45	60.2	60.2	60.2	91	57.6	0	1	292	0.03	30.145 
20:50	59.9	59.9	59.9	91	57.3	0	1	292	0.02	30.145 
20:55	59.6	59.6	59.6	92	57.3	0	1	292	0.01	30.145 
21:00	59.3	59.3	59.3	92	57.0	0	2	292	0.00	30.144 
21:05	59.3	59.3	59.3	92	57.0	0	1	292	0.01	30.144 
21:10	59.2	59.2	59.2	93	57.2	0	1	292	0.00	30.144 
21:15	59.0	59.0	59.0	93	57.0	0	1	292	0.01	30.133 
21:20	59.0	59.0	59.0	93	57.0	0	1	292	0.01	30.133 
21:25	59.2	59.2	59.2	93	57.2	0	0	---	0.00	30.133 
21:30	59.2	59.2	59.2	94	57.5	0	0	---	0.01	30.131 
21:35	59.2	59.2	59.2	94	57.5	0	0	---	0.00	30.131 
21:40	59.3	59.3	59.3	94	57.6	0	0	---	0.00	30.131 
21:45	59.3	59.3	59.3	94	57.6	0	1	292	0.00	30.128 
21:50	59.2	59.2	59.2	94	57.5	0	0	---	0.00	30.128 
21:55	58.9	58.9	58.9	94	57.2	0	0	---	0.00	30.128 
22:00	59.0	59.0	59.0	94	57.3	0	1	292	0.00	30.130 
22:05	59.2	59.2	59.2	94	57.5	0	0	---	0.00	30.130 
22:10	59.2	59.2	59.2	94	57.5	0	0	---	0.00	30.130 
22:15	59.0	59.0	59.0	94	57.3	0	0	---	0.00	30.128 
22:20	59.0	59.0	59.0	94	57.3	0	0	---	0.00	30.128 
22:25	59.0	59.0	59.0	94	57.3	0	0	---	0.00	30.128 
22:30	59.0	59.0	59.0	94	57.3	0	0	---	0.00	30.130 
22:35	59.2	59.2	59.2	95	57.8	0	0	---	0.00	30.130 
22:40	59.2	59.2	59.2	95	57.8	0	0	---	0.00	30.130 
22:45	59.2	59.2	59.2	95	57.8	0	0	---	0.00	30.133 
22:50	59.2	59.2	59.2	95	57.8	0	0	---	0.00	30.133 
22:55	59.2	59.2	59.2	95	57.8	0	0	---	0.00	30.133 
23:00	59.3	59.3	59.3	95	57.9	0	0	---	0.00	30.138 
23:05	59.2	59.2	59.2	95	57.8	0	0	---	0.00	30.138 
23:10	59.2	59.2	59.2	95	57.8	0	0	---	0.00	30.138 
23:15	59.2	59.2	59.2	95	57.8	0	0	---	0.00	30.138 
23:20	59.2	59.2	59.2	95	57.8	0	0	---	0.00	30.138 
23:25	59.0	59.0	59.0	95	57.6	0	0	---	0.00	30.138 
23:30	59.0	59.0	59.0	95	57.6	0	0	---	0.01	30.136 
23:35	59.0	59.0	59.0	95	57.6	0	0	---	0.00	30.136 
23:40	59.0	59.0	59.0	95	57.6	0	0	---	0.00	30.136 
23:45	59.0	59.0	59.0	95	57.6	0	0	---	0.00	30.135 
23:50	59.0	59.0	59.0	95	57.6	0	0	---	0.00	30.135 
23:55	59.0	59.0	59.0	95	57.6	0	0	---	0.00	30.135 

CoCoRaHS
IN-AL-39
A2 Web Hosting
Creative Commons License
GoDaddy
search engine by freefind advanced

loaded 2018-11-20 02:49:08 • last modified 2010-11-18 10:43:29
Privacy PolicyDisclaimer
• wx.awcolley.com is powered by PmWiki v.2002016 •
• all content (unless otherwise noted) © 2018 A W Colley